Time;durP1;ratioP1;P1;durP2;ratioP2;P2;SDS_P1;SDS_P2;PMS_P1;PMS_P2;Temp;Humidity;BMP_temperature;BMP_pressure;BME280_temperature;BME280_humidity;BME280_pressure;Samples;Min_cycle;Max_cycle;Signal;HPM_P1;HPM_P2
2021/01/20 00:02:22;;;;;;;10.40;9.80;;;4.90;99.90;;;;;;4934343;29;21041;-79
2021/01/20 00:04:48;;;;;;;11.70;11.00;;;4.80;99.90;;;;;;4934178;29;20454;-78
2021/01/20 00:07:14;;;;;;;11.47;10.67;;;4.70;99.90;;;;;;4934521;29;20458;-78
2021/01/20 00:09:41;;;;;;;12.83;11.60;;;4.70;99.90;;;;;;4934337;29;20456;-79
2021/01/20 00:12:07;;;;;;;15.13;12.40;;;4.50;99.90;;;;;;4934140;29;20854;-79
2021/01/20 00:14:33;;;;;;;14.27;13.00;;;4.40;99.90;;;;;;4934062;29;20557;-78
2021/01/20 00:16:59;;;;;;;12.70;11.73;;;4.20;99.90;;;;;;4933878;29;20450;-78
2021/01/20 00:19:26;;;;;;;13.03;11.83;;;4.10;99.90;;;;;;4933862;29;20492;-78
2021/01/20 00:21:53;;;;;;;12.33;11.50;;;4.00;99.90;;;;;;4933886;29;20457;-79
2021/01/20 00:24:19;;;;;;;11.53;10.70;;;3.90;99.90;;;;;;4933975;29;20459;-78
2021/01/20 00:26:45;;;;;;;10.30;9.80;;;3.90;99.90;;;;;;4933843;29;20985;-79
2021/01/20 00:29:11;;;;;;;11.53;10.67;;;4.00;99.90;;;;;;4933838;29;20517;-78
2021/01/20 00:31:37;;;;;;;10.50;10.00;;;3.90;99.90;;;;;;4933792;29;20469;-79
2021/01/20 00:34:04;;;;;;;10.30;9.80;;;4.00;99.90;;;;;;4933590;29;20458;-79
2021/01/20 00:36:31;;;;;;;9.43;9.03;;;4.00;99.90;;;;;;4933758;29;20771;-79
2021/01/20 00:38:57;;;;;;;9.43;8.93;;;4.00;99.90;;;;;;4933649;29;20490;-79
2021/01/20 00:41:23;;;;;;;8.67;8.30;;;4.20;99.90;;;;;;4933148;29;20466;-76
2021/01/20 00:43:49;;;;;;;8.90;8.60;;;4.30;99.90;;;;;;4933486;29;20516;-75
2021/01/20 00:46:15;;;;;;;8.87;8.47;;;4.50;99.90;;;;;;4933479;29;20969;-77
2021/01/20 05:14:53;;;;;;;16.30;15.10;;;3.40;99.90;;;;;;5750934;23;20764;-76
2021/01/20 05:17:19;;;;;;;17.53;16.03;;;3.30;99.90;;;;;;4949443;28;20456;-76
2021/01/20 05:19:45;;;;;;;14.73;13.63;;;3.30;99.90;;;;;;4951773;29;20494;-76
2021/01/20 05:22:12;;;;;;;14.87;13.67;;;3.30;99.90;;;;;;4951900;29;20456;-77
2021/01/20 05:24:38;;;;;;;16.83;15.73;;;3.30;99.90;;;;;;4951812;29;20459;-76
2021/01/20 05:27:05;;;;;;;15.60;14.73;;;3.30;99.90;;;;;;4951710;29;20460;-76
2021/01/20 05:29:32;;;;;;;16.10;15.00;;;3.30;99.90;;;;;;4951682;29;20448;-76
2021/01/20 05:32:15;;;;;;;16.50;15.10;;;3.30;99.90;;;;;;4948398;29;20468;-77
2021/01/20 05:34:41;;;;;;;16.37;15.20;;;3.40;99.90;;;;;;4941025;29;20468;-78
2021/01/20 05:37:09;;;;;;;18.13;16.33;;;3.40;99.90;;;;;;4932583;29;20917;-79
2021/01/20 05:39:37;;;;;;;16.43;15.17;;;3.50;99.90;;;;;;4932505;29;21018;-77
2021/01/20 05:42:06;;;;;;;15.50;14.30;;;3.70;99.90;;;;;;4932701;29;20461;-79
2021/01/20 05:44:32;;;;;;;15.03;13.87;;;3.70;99.90;;;;;;4932218;29;20457;-79
2021/01/20 05:47:07;;;;;;;15.60;14.30;;;3.80;99.90;;;;;;4932895;29;20461;-78
2021/01/20 05:49:33;;;;;;;13.43;12.60;;;3.90;99.90;;;;;;4932693;29;20542;-79
2021/01/20 05:52:01;;;;;;;15.00;13.83;;;4.00;99.90;;;;;;4932828;29;20454;-79
2021/01/20 05:54:34;;;;;;;13.70;12.90;;;4.10;99.90;;;;;;4932584;29;20497;-78
2021/01/20 05:57:11;;;;;;;16.17;14.77;;;4.20;99.90;;;;;;4932929;29;20457;-78
2021/01/20 05:59:37;;;;;;;13.80;12.90;;;4.20;99.90;;;;;;4932656;29;21291;-78
2021/01/20 06:02:04;;;;;;;13.97;13.07;;;4.20;99.90;;;;;;4932537;29;20457;-78
2021/01/20 06:04:32;;;;;;;14.80;13.77;;;4.10;99.90;;;;;;4932511;29;20453;-76
2021/01/20 06:07:01;;;;;;;16.40;15.30;;;4.10;99.90;;;;;;4932729;29;20457;-77
2021/01/20 06:09:29;;;;;;;19.40;17.00;;;4.00;99.90;;;;;;4932678;29;20926;-77
2021/01/20 06:11:55;;;;;;;17.40;15.83;;;3.90;99.90;;;;;;4932507;29;20469;-79
2021/01/20 06:14:22;;;;;;;17.47;15.90;;;3.80;99.90;;;;;;4932110;29;20482;-76
2021/01/20 06:16:53;;;;;;;17.47;15.67;;;3.80;99.90;;;;;;4932350;29;20476;-77
2021/01/20 06:19:20;;;;;;;20.23;18.03;;;3.70;99.90;;;;;;4932363;29;20900;-77
2021/01/20 06:21:48;;;;;;;22.40;17.67;;;3.60;99.90;;;;;;4932694;29;20517;-76
2021/01/20 06:24:22;;;;;;;22.57;17.03;;;3.70;99.90;;;;;;4932825;29;20454;-76
2021/01/20 06:26:55;;;;;;;18.40;16.43;;;3.60;99.90;;;;;;4932142;29;20505;-76
2021/01/20 06:29:24;;;;;;;17.23;15.63;;;3.70;99.90;;;;;;4934543;29;20457;-76
2021/01/20 06:31:54;;;;;;;17.27;15.60;;;3.60;99.90;;;;;;4935949;29;20457;-76
2021/01/20 06:34:21;;;;;;;18.30;16.57;;;3.60;99.90;;;;;;4935799;29;20611;-76
2021/01/20 06:36:47;;;;;;;16.87;15.30;;;3.60;99.90;;;;;;4935609;29;20486;-76
2021/01/20 06:39:33;;;;;;;19.60;17.87;;;3.60;99.90;;;;;;4935913;29;20892;-76
2021/01/20 06:42:00;;;;;;;17.40;15.90;;;3.60;99.90;;;;;;4936135;29;20994;-76
2021/01/20 06:44:27;;;;;;;16.50;14.90;;;3.60;99.90;;;;;;4935799;29;20453;-77
2021/01/20 06:47:04;;;;;;;17.53;15.83;;;3.50;99.90;;;;;;4935700;29;20458;-77
2021/01/20 06:49:33;;;;;;;16.93;15.60;;;3.50;99.90;;;;;;4935763;29;20900;-77
2021/01/20 06:52:10;;;;;;;16.60;14.93;;;3.40;99.90;;;;;;4935773;29;20461;-76
2021/01/20 06:54:39;;;;;;;17.00;15.80;;;3.50;99.90;;;;;;4935620;29;20524;-75
2021/01/20 06:57:30;;;;;;;16.90;15.63;;;3.50;99.90;;;;;;4935523;29;20671;-76
2021/01/20 07:00:17;;;;;;;16.30;15.20;;;3.40;99.90;;;;;;4935620;29;20532;-77
2021/01/20 07:03:01;;;;;;;17.23;15.60;;;3.30;99.90;;;;;;4935770;29;20457;-77
2021/01/20 07:05:39;;;;;;;17.33;15.80;;;3.30;99.90;;;;;;4935146;29;20476;-77
2021/01/20 07:08:09;;;;;;;19.67;18.03;;;3.30;99.90;;;;;;4932927;29;20449;-77
2021/01/20 07:11:05;;;;;;;19.23;17.37;;;3.30;99.90;;;;;;4934571;29;20482;-78
2021/01/20 07:13:33;;;;;;;18.77;17.40;;;3.30;99.90;;;;;;4934891;29;20473;-77
2021/01/20 07:16:00;;;;;;;18.40;16.80;;;3.30;99.90;;;;;;4934614;29;20482;-77
2021/01/20 07:18:26;;;;;;;22.37;20.27;;;3.30;99.90;;;;;;4934670;29;20450;-77
2021/01/20 07:20:55;;;;;;;22.80;20.83;;;3.30;99.90;;;;;;4934554;29;20446;-78
2021/01/20 07:23:21;;;;;;;23.53;19.10;;;3.40;99.90;;;;;;4934459;29;20468;-77
2021/01/20 07:25:52;;;;;;;22.27;20.47;;;3.50;99.90;;;;;;4934401;29;20466;-78
2021/01/20 07:28:20;;;;;;;22.97;19.30;;;3.50;99.90;;;;;;4934308;29;20457;-78
2021/01/20 07:30:46;;;;;;;17.40;15.87;;;3.50;99.90;;;;;;4934298;29;20461;-77
2021/01/20 07:33:20;;;;;;;18.97;17.47;;;3.60;99.90;;;;;;4934729;29;20985;-77
2021/01/20 07:35:46;;;;;;;17.47;16.27;;;3.70;99.90;;;;;;4934229;29;20464;-77
2021/01/20 07:38:14;;;;;;;19.67;17.93;;;3.80;99.90;;;;;;4934423;29;20836;-78
2021/01/20 07:40:41;;;;;;;20.37;18.60;;;3.80;99.90;;;;;;4933474;29;20852;-77
2021/01/20 07:43:08;;;;;;;26.37;21.00;;;3.80;99.90;;;;;;4933915;29;20449;-79
2021/01/20 07:45:39;;;;;;;22.30;20.30;;;3.70;99.90;;;;;;4933590;29;20472;-76
2021/01/20 07:48:07;;;;;;;27.97;21.90;;;3.70;99.90;;;;;;4933813;29;20587;-76
2021/01/20 07:50:36;;;;;;;20.50;18.97;;;3.70;99.90;;;;;;4934000;29;20457;-77
2021/01/20 07:53:03;;;;;;;21.37;19.33;;;3.70;99.90;;;;;;4933927;29;21185;-77
2021/01/20 07:55:31;;;;;;;23.97;19.57;;;3.70;99.90;;;;;;4934179;29;20461;-76
2021/01/20 07:57:59;;;;;;;23.57;20.30;;;3.90;99.90;;;;;;4933803;29;20458;-76
2021/01/20 08:00:25;;;;;;;22.87;20.67;;;3.90;99.90;;;;;;4932958;29;20956;-76
2021/01/20 08:02:52;;;;;;;21.17;19.20;;;4.00;99.90;;;;;;4933360;29;21034;-77
2021/01/20 08:05:18;;;;;;;23.53;21.40;;;4.10;99.90;;;;;;4934309;28;20969;-77
2021/01/20 08:07:44;;;;;;;19.87;18.27;;;4.10;99.90;;;;;;4953136;29;20456;-77
2021/01/20 08:10:20;;;;;;;19.73;18.07;;;4.10;99.90;;;;;;4952990;29;20456;-77
2021/01/20 08:12:50;;;;;;;19.97;18.27;;;4.20;99.90;;;;;;4953068;29;20457;-77
2021/01/20 08:15:17;;;;;;;19.43;17.90;;;4.10;99.90;;;;;;4953124;29;20488;-77
2021/01/20 08:17:44;;;;;;;19.27;17.77;;;4.10;99.90;;;;;;4953329;29;20458;-77
2021/01/20 08:20:12;;;;;;;19.10;17.50;;;4.20;99.90;;;;;;4953148;29;20492;-77
2021/01/20 08:22:39;;;;;;;18.87;17.17;;;4.20;99.90;;;;;;4952949;29;20445;-77
2021/01/20 08:25:10;;;;;;;19.33;17.57;;;4.20;99.90;;;;;;4952968;29;20486;-77
2021/01/20 08:27:37;;;;;;;18.23;16.67;;;4.30;99.90;;;;;;4953061;29;20474;-78
2021/01/20 08:30:06;;;;;;;17.73;16.50;;;4.40;99.90;;;;;;4952779;29;20481;-78
2021/01/20 08:32:33;;;;;;;23.13;20.77;;;4.40;99.90;;;;;;4952698;29;20499;-77
2021/01/20 08:35:00;;;;;;;19.63;17.97;;;4.40;99.90;;;;;;4957487;28;21008;-77
2021/01/20 08:37:36;;;;;;;21.93;19.60;;;4.40;99.90;;;;;;4961760;28;20452;-77
2021/01/20 08:40:05;;;;;;;20.60;19.10;;;4.40;99.90;;;;;;4957696;28;20483;-76
2021/01/20 08:42:39;;;;;;;20.27;18.47;;;4.40;99.90;;;;;;4962188;28;20513;-76
2021/01/20 08:45:13;;;;;;;21.60;19.50;;;4.40;99.90;;;;;;4957109;28;20447;-76
2021/01/20 08:47:50;;;;;;;19.03;17.40;;;4.50;99.90;;;;;;4952572;29;20455;-76
2021/01/20 08:50:18;;;;;;;19.20;17.33;;;4.50;99.90;;;;;;4952664;29;20536;-75
2021/01/20 08:52:50;;;;;;;19.17;17.37;;;4.50;99.90;;;;;;4951853;28;20455;-76
2021/01/20 08:55:25;;;;;;;20.50;18.60;;;4.60;99.90;;;;;;4952654;29;20464;-75
2021/01/20 08:58:20;;;;;;;21.10;19.20;;;4.70;99.90;;;;;;4952527;29;20976;-75
2021/01/20 09:00:49;;;;;;;20.53;18.47;;;4.70;99.90;;;;;;4952342;29;20488;-75
2021/01/20 09:03:16;;;;;;;23.60;21.50;;;4.60;99.90;;;;;;4952573;29;20457;-76
2021/01/20 09:05:42;;;;;;;23.17;21.03;;;4.70;99.90;;;;;;4952401;29;20462;-75
2021/01/20 09:08:08;;;;;;;26.60;22.43;;;4.70;99.90;;;;;;4952134;29;20490;-75
2021/01/20 09:10:34;;;;;;;23.00;20.70;;;4.70;99.90;;;;;;4952163;29;20972;-75
2021/01/20 09:13:01;;;;;;;21.53;19.37;;;4.70;99.90;;;;;;4952201;29;20534;-75
2021/01/20 09:15:27;;;;;;;20.80;18.20;;;4.70;99.90;;;;;;4951794;29;20484;-75
2021/01/20 09:17:54;;;;;;;19.67;18.10;;;4.70;99.90;;;;;;4951917;29;20459;-74
2021/01/20 09:20:20;;;;;;;18.37;16.67;;;4.70;99.90;;;;;;4948048;29;20485;-74
2021/01/20 09:22:47;;;;;;;19.23;17.40;;;4.70;99.90;;;;;;4952193;29;20460;-75
2021/01/20 09:25:13;;;;;;;21.13;18.87;;;4.70;99.90;;;;;;4952350;29;20968;-75
2021/01/20 09:27:39;;;;;;;19.90;18.20;;;4.70;99.90;;;;;;4952192;29;20521;-75
2021/01/20 09:30:07;;;;;;;20.07;18.37;;;4.90;99.90;;;;;;4951964;29;20444;-76
2021/01/20 09:32:35;;;;;;;25.37;19.70;;;5.00;99.90;;;;;;4952106;29;20503;-75
2021/01/20 09:35:06;;;;;;;20.87;18.93;;;5.00;99.90;;;;;;4952381;29;20483;-75
2021/01/20 09:37:33;;;;;;;21.97;19.80;;;5.00;99.90;;;;;;4952233;29;20457;-75
2021/01/20 09:39:59;;;;;;;18.20;16.63;;;5.00;99.90;;;;;;4952282;29;20995;-75
2021/01/20 09:42:25;;;;;;;20.60;18.50;;;5.00;99.90;;;;;;4952233;29;20455;-74
2021/01/20 09:44:52;;;;;;;16.60;15.23;;;5.00;99.90;;;;;;4952019;29;20453;-74
2021/01/20 09:47:18;;;;;;;20.20;18.10;;;5.10;99.90;;;;;;4952074;29;20453;-73
2021/01/20 09:49:45;;;;;;;19.37;17.67;;;5.10;99.90;;;;;;4952237;29;20821;-73
2021/01/20 09:52:15;;;;;;;19.07;17.27;;;5.20;99.90;;;;;;4952062;29;20505;-73
2021/01/20 09:54:42;;;;;;;20.03;18.00;;;5.30;99.90;;;;;;4952350;29;20815;-73
2021/01/20 09:57:08;;;;;;;18.87;16.93;;;5.40;99.90;;;;;;4951953;29;20481;-73
2021/01/20 09:59:34;;;;;;;18.00;16.30;;;5.50;99.90;;;;;;4951823;29;20503;-73
2021/01/20 10:02:00;;;;;;;19.43;17.67;;;5.70;99.90;;;;;;4952119;29;20454;-73
2021/01/20 10:04:26;;;;;;;17.70;16.13;;;5.80;99.90;;;;;;4954345;28;20452;-74
2021/01/20 10:06:53;;;;;;;16.07;14.70;;;5.80;99.90;;;;;;4955618;29;20455;-73
2021/01/20 10:09:20;;;;;;;16.63;15.30;;;6.00;99.90;;;;;;4955515;29;20455;-74
2021/01/20 10:11:49;;;;;;;13.23;12.43;;;6.10;99.90;;;;;;4955842;29;20458;-73
2021/01/20 10:14:16;;;;;;;14.83;13.73;;;6.20;99.90;;;;;;4955507;29;20557;-73
2021/01/20 10:16:46;;;;;;;15.13;14.03;;;6.30;99.90;;;;;;4955503;29;20855;-73
2021/01/20 10:19:12;;;;;;;17.13;15.40;;;6.50;99.90;;;;;;4955484;29;20534;-73
2021/01/20 10:21:38;;;;;;;14.97;13.90;;;6.60;99.90;;;;;;4955461;29;20455;-73
2021/01/20 10:24:06;;;;;;;23.97;17.10;;;6.70;99.90;;;;;;4955517;29;20901;-74
2021/01/20 10:26:33;;;;;;;15.03;13.83;;;6.70;99.90;;;;;;4955429;29;20460;-73
2021/01/20 10:28:59;;;;;;;14.30;13.20;;;6.70;99.90;;;;;;4955474;29;20451;-74
2021/01/20 10:31:29;;;;;;;15.83;14.60;;;6.80;99.90;;;;;;4955255;29;20460;-74
2021/01/20 10:33:55;;;;;;;17.23;13.70;;;6.90;99.90;;;;;;4955290;29;20486;-74
2021/01/20 10:36:21;;;;;;;15.87;14.70;;;7.00;99.90;;;;;;4955194;29;20466;-74
2021/01/20 10:38:47;;;;;;;16.80;15.50;;;7.10;99.90;;;;;;4955051;29;20507;-73
2021/01/20 10:41:13;;;;;;;15.87;14.67;;;7.10;99.90;;;;;;4955258;29;20452;-74
2021/01/20 10:43:42;;;;;;;17.10;15.40;;;7.20;99.90;;;;;;4955174;29;20457;-74
2021/01/20 10:46:08;;;;;;;18.77;16.80;;;7.20;99.90;;;;;;4954856;29;20464;-74
2021/01/20 10:48:34;;;;;;;18.37;16.53;;;7.10;99.90;;;;;;4954898;29;20448;-74
2021/01/20 10:51:00;;;;;;;18.37;16.77;;;7.10;99.90;;;;;;4955053;29;20448;-74
2021/01/20 10:53:26;;;;;;;21.53;19.37;;;7.10;99.90;;;;;;4955065;29;20468;-74
2021/01/20 10:55:53;;;;;;;19.10;17.00;;;7.10;99.90;;;;;;4954859;29;20487;-74
2021/01/20 10:58:19;;;;;;;20.43;17.00;;;7.20;99.90;;;;;;4954657;29;20456;-74
2021/01/20 11:00:47;;;;;;;17.70;16.13;;;7.30;99.90;;;;;;4954726;29;20904;-74
2021/01/20 11:03:13;;;;;;;17.53;16.20;;;7.30;99.90;;;;;;4954740;29;20463;-74
2021/01/20 11:05:39;;;;;;;16.57;15.20;;;7.40;99.90;;;;;;4954581;29;20845;-74
2021/01/20 11:08:07;;;;;;;20.63;18.30;;;7.40;99.90;;;;;;4954625;29;20459;-74
2021/01/20 11:10:33;;;;;;;18.33;16.53;;;7.50;99.90;;;;;;4954395;29;21005;-74
2021/01/20 11:13:07;;;;;;;18.13;16.30;;;7.60;99.90;;;;;;4954352;29;20958;-74
2021/01/20 11:15:35;;;;;;;17.50;16.03;;;7.60;99.90;;;;;;4953085;28;20846;-73
2021/01/20 11:18:03;;;;;;;17.57;16.17;;;7.70;99.90;;;;;;4954112;29;20567;-74
2021/01/20 11:20:29;;;;;;;18.00;16.50;;;7.70;99.90;;;;;;4954055;29;20484;-74
2021/01/20 11:22:55;;;;;;;15.33;14.23;;;7.90;99.90;;;;;;4953879;29;20460;-74
2021/01/20 11:25:21;;;;;;;14.83;13.77;;;8.00;99.90;;;;;;4953751;29;20456;-74
2021/01/20 11:27:50;;;;;;;15.93;14.30;;;7.90;99.90;;;;;;4953761;29;20931;-74
2021/01/20 11:30:17;;;;;;;14.63;13.30;;;8.00;99.90;;;;;;4954247;29;20556;-74
2021/01/20 11:32:43;;;;;;;14.20;12.90;;;8.10;99.90;;;;;;4954289;29;20468;-74
2021/01/20 11:35:11;;;;;;;12.20;11.60;;;8.10;99.90;;;;;;4954211;29;20460;-74
2021/01/20 11:37:38;;;;;;;12.90;12.07;;;8.10;99.80;;;;;;4954002;29;20858;-75
2021/01/20 11:40:05;;;;;;;11.07;10.37;;;8.10;99.70;;;;;;4953911;29;20519;-75
2021/01/20 11:42:32;;;;;;;12.90;11.97;;;8.10;99.50;;;;;;4954031;29;20449;-74
2021/01/20 11:44:58;;;;;;;11.60;10.90;;;8.10;99.30;;;;;;4953881;29;20452;-74
2021/01/20 11:47:24;;;;;;;12.40;11.60;;;8.10;99.20;;;;;;4953784;29;20839;-74
2021/01/20 11:49:51;;;;;;;11.70;11.00;;;8.10;99.00;;;;;;4953850;29;20460;-74
2021/01/20 11:52:18;;;;;;;15.43;11.60;;;8.10;99.00;;;;;;4953604;29;20551;-77
2021/01/20 11:54:44;;;;;;;13.03;12.23;;;8.20;99.10;;;;;;4953776;29;20467;-75
2021/01/20 11:57:11;;;;;;;14.67;13.57;;;8.20;99.20;;;;;;4953782;29;20831;-74
2021/01/20 11:59:37;;;;;;;13.00;12.20;;;8.20;99.50;;;;;;4951625;29;20488;-74
2021/01/20 12:02:04;;;;;;;12.63;11.80;;;8.20;99.30;;;;;;4953531;29;20484;-75
2021/01/20 12:04:30;;;;;;;12.80;11.90;;;8.20;99.40;;;;;;4953582;29;20461;-75
2021/01/20 13:39:39;;;;;;;13.53;12.50;;;9.50;98.00;;;;;;5522116;23;21039;-75
2021/01/20 13:42:05;;;;;;;13.77;12.87;;;9.60;97.50;;;;;;4911612;29;20470;-76
2021/01/20 13:44:31;;;;;;;13.37;12.50;;;9.60;97.20;;;;;;4913994;29;20455;-74
2021/01/20 13:46:58;;;;;;;14.17;13.37;;;9.70;97.60;;;;;;4913938;29;20806;-74
2021/01/20 13:49:24;;;;;;;14.67;13.63;;;9.70;97.60;;;;;;4914218;29;20453;-75
2021/01/20 13:51:50;;;;;;;12.87;12.17;;;9.60;97.40;;;;;;4913789;29;20462;-75
2021/01/20 13:54:16;;;;;;;14.83;13.60;;;9.60;97.50;;;;;;4913075;29;20481;-75
2021/01/20 13:56:43;;;;;;;13.97;13.03;;;9.70;97.80;;;;;;4914007;29;20837;-75
2021/01/20 13:59:11;;;;;;;14.07;13.27;;;9.60;97.50;;;;;;4913996;29;20452;-75
2021/01/20 14:01:37;;;;;;;13.20;12.50;;;9.60;97.40;;;;;;4913962;29;20520;-75
2021/01/20 14:04:04;;;;;;;14.07;13.00;;;9.60;97.30;;;;;;4913471;29;20455;-75
2021/01/20 14:06:30;;;;;;;13.97;12.97;;;9.50;97.30;;;;;;4913393;29;20462;-76
2021/01/20 14:08:56;;;;;;;14.20;13.30;;;9.40;97.50;;;;;;4913814;29;20465;-76
2021/01/20 14:11:23;;;;;;;13.37;12.60;;;9.40;97.60;;;;;;4913417;29;20454;-75
2021/01/20 14:13:50;;;;;;;16.43;15.50;;;9.40;97.70;;;;;;4911068;29;20460;-75
2021/01/20 14:16:16;;;;;;;13.47;12.50;;;9.40;97.80;;;;;;4913130;29;20536;-76
2021/01/20 14:18:42;;;;;;;14.57;13.67;;;9.30;97.80;;;;;;4913072;29;20956;-75
2021/01/20 14:21:09;;;;;;;16.37;14.63;;;9.30;97.70;;;;;;4913185;29;20584;-75
2021/01/20 14:23:35;;;;;;;14.73;13.63;;;9.30;98.00;;;;;;4912922;29;20841;-74
2021/01/20 14:26:01;;;;;;;14.93;13.83;;;9.30;97.70;;;;;;4912917;29;20465;-75
2021/01/20 14:28:27;;;;;;;14.90;14.00;;;9.30;97.80;;;;;;4912996;29;20454;-75
2021/01/20 14:30:54;;;;;;;13.33;12.43;;;9.20;97.90;;;;;;4913169;29;20458;-75
2021/01/20 14:33:21;;;;;;;14.30;13.10;;;9.30;97.90;;;;;;4913094;29;20663;-74
2021/01/20 14:35:47;;;;;;;15.23;13.93;;;9.20;97.90;;;;;;4912771;29;20454;-76
2021/01/20 14:38:13;;;;;;;14.77;13.63;;;9.20;98.10;;;;;;4912752;29;20479;-75
2021/01/20 14:40:39;;;;;;;14.97;13.67;;;9.10;98.10;;;;;;4912897;29;20498;-76
2021/01/20 14:43:05;;;;;;;13.50;12.40;;;9.10;98.30;;;;;;4912803;29;20820;-76
2021/01/20 14:45:32;;;;;;;14.27;12.90;;;9.10;98.40;;;;;;4912833;29;20521;-75
2021/01/20 14:47:59;;;;;;;14.27;13.37;;;9.00;98.60;;;;;;4912939;29;20496;-75
2021/01/20 14:50:25;;;;;;;14.23;12.83;;;9.00;98.60;;;;;;4915340;29;20446;-76
2021/01/20 14:52:51;;;;;;;13.90;12.90;;;9.00;98.60;;;;;;4916582;29;20476;-75
2021/01/20 14:55:17;;;;;;;14.30;13.37;;;8.90;98.60;;;;;;4916320;29;20513;-76
2021/01/20 14:57:43;;;;;;;15.53;12.97;;;8.90;98.70;;;;;;4916326;29;20482;-74
2021/01/20 15:00:10;;;;;;;13.87;12.47;;;8.80;98.80;;;;;;4916427;29;20513;-75
2021/01/20 15:02:37;;;;;;;13.27;12.50;;;8.80;98.80;;;;;;4916421;29;20464;-75
2021/01/20 15:05:04;;;;;;;14.10;12.70;;;8.70;98.90;;;;;;4916241;29;20459;-74
2021/01/20 15:07:31;;;;;;;12.73;11.83;;;8.70;99.20;;;;;;4915960;29;20458;-75
2021/01/20 15:09:57;;;;;;;15.97;14.93;;;8.70;99.30;;;;;;4916028;29;21013;-74
2021/01/20 15:12:23;;;;;;;18.47;12.37;;;8.70;99.50;;;;;;4915752;29;20451;-75
2021/01/20 15:14:49;;;;;;;13.73;12.93;;;8.60;99.40;;;;;;4915802;29;20458;-75
2021/01/20 15:17:15;;;;;;;14.13;13.13;;;8.60;99.50;;;;;;4915377;29;20454;-75
2021/01/20 15:19:41;;;;;;;13.80;13.00;;;8.60;99.50;;;;;;4915596;29;20486;-75
2021/01/20 15:22:08;;;;;;;13.77;12.97;;;8.50;99.50;;;;;;4915917;29;20462;-74
2021/01/20 15:24:35;;;;;;;13.60;12.70;;;8.50;99.70;;;;;;4915356;29;20462;-74
2021/01/20 15:27:01;;;;;;;14.63;13.20;;;8.40;99.70;;;;;;4915357;29;20522;-74
2021/01/20 15:29:27;;;;;;;12.90;12.03;;;8.40;99.90;;;;;;4915333;29;20517;-75
2021/01/20 15:31:53;;;;;;;13.97;12.73;;;8.40;99.90;;;;;;4915662;29;20462;-75
2021/01/20 15:34:19;;;;;;;12.30;11.73;;;8.30;99.90;;;;;;4915113;29;20462;-74
2021/01/20 15:36:46;;;;;;;14.63;13.43;;;8.30;99.90;;;;;;4915036;29;20549;-75
2021/01/20 15:39:13;;;;;;;13.57;12.17;;;8.20;99.90;;;;;;4915030;29;20486;-75
2021/01/20 15:41:40;;;;;;;14.73;13.43;;;8.20;99.90;;;;;;4915519;29;20828;-75
2021/01/20 15:44:06;;;;;;;14.67;13.43;;;8.10;99.90;;;;;;4915261;29;20458;-74
2021/01/20 15:46:32;;;;;;;13.73;12.50;;;8.00;99.90;;;;;;4914871;29;20462;-75
2021/01/20 15:48:58;;;;;;;13.10;11.97;;;7.90;99.90;;;;;;4915252;29;20488;-75
2021/01/20 15:51:25;;;;;;;15.87;14.40;;;7.80;99.90;;;;;;4915045;29;20450;-75
2021/01/20 15:53:51;;;;;;;14.07;12.90;;;7.70;99.90;;;;;;4915130;29;20457;-75
2021/01/20 15:56:18;;;;;;;14.70;13.60;;;7.60;99.90;;;;;;4914831;29;20469;-75
2021/01/20 15:58:44;;;;;;;14.93;13.70;;;7.60;99.90;;;;;;4914891;29;20454;-75
2021/01/20 16:01:11;;;;;;;15.97;14.60;;;7.50;99.90;;;;;;4911158;29;20485;-75
2021/01/20 16:03:37;;;;;;;12.80;12.00;;;7.50;99.90;;;;;;4911775;29;20462;-75
2021/01/20 16:06:04;;;;;;;13.53;12.63;;;7.50;99.90;;;;;;4914939;29;20882;-75
2021/01/20 16:08:30;;;;;;;16.47;13.80;;;7.50;99.90;;;;;;4914838;29;20701;-77
2021/01/20 16:10:56;;;;;;;13.07;12.30;;;7.60;99.90;;;;;;4915054;29;20458;-75
2021/01/20 16:13:23;;;;;;;14.60;13.40;;;7.50;99.90;;;;;;4914990;29;20466;-74
2021/01/20 16:15:49;;;;;;;13.20;12.37;;;7.60;99.90;;;;;;4914728;29;20549;-74
2021/01/20 16:18:15;;;;;;;12.80;12.10;;;7.60;99.90;;;;;;4914632;29;20812;-76
2021/01/20 16:20:42;;;;;;;13.17;12.23;;;7.70;99.90;;;;;;4914664;29;20490;-75
2021/01/20 16:23:08;;;;;;;15.53;14.23;;;7.60;99.90;;;;;;4914996;29;20461;-76
2021/01/20 16:25:34;;;;;;;14.77;13.53;;;7.60;99.90;;;;;;4914444;29;21016;-75
2021/01/20 16:28:00;;;;;;;14.90;13.60;;;7.60;99.90;;;;;;4914458;29;20570;-75
2021/01/20 16:30:29;;;;;;;15.07;14.07;;;7.60;99.90;;;;;;4914572;29;20451;-75
2021/01/20 16:32:57;;;;;;;15.33;14.30;;;7.60;99.90;;;;;;4914703;29;20465;-75
2021/01/20 16:35:23;;;;;;;15.10;14.10;;;7.60;99.90;;;;;;4914562;29;20986;-76
2021/01/20 16:37:50;;;;;;;16.10;14.90;;;7.50;99.90;;;;;;4914256;29;20565;-76
2021/01/20 16:40:17;;;;;;;16.73;15.47;;;7.50;99.90;;;;;;4914129;29;20513;-75
2021/01/20 16:42:43;;;;;;;17.33;15.73;;;7.40;99.90;;;;;;4914100;29;20454;-76
2021/01/20 16:45:11;;;;;;;16.20;14.87;;;7.30;99.90;;;;;;4914727;29;20454;-76
2021/01/20 16:47:38;;;;;;;20.17;18.27;;;7.10;99.90;;;;;;4914595;29;20480;-75
2021/01/20 16:50:06;;;;;;;18.87;17.37;;;7.10;99.90;;;;;;4913944;29;20466;-75
2021/01/20 16:52:32;;;;;;;21.30;17.73;;;7.00;99.90;;;;;;4913279;29;20454;-76
2021/01/20 16:54:58;;;;;;;18.73;16.93;;;7.00;99.90;;;;;;4913291;29;20469;-76
2021/01/20 16:57:24;;;;;;;20.63;16.60;;;7.00;99.90;;;;;;4914183;29;20526;-75
2021/01/20 16:59:50;;;;;;;19.47;17.67;;;7.00;99.90;;;;;;4913149;29;20510;-76
2021/01/20 17:02:16;;;;;;;21.60;18.87;;;6.90;99.90;;;;;;4913476;29;20635;-75
2021/01/20 17:04:43;;;;;;;20.57;17.77;;;6.90;99.90;;;;;;4913288;29;20462;-75
2021/01/20 17:07:09;;;;;;;20.13;18.50;;;6.90;99.90;;;;;;4913847;29;20450;-75
2021/01/20 17:09:36;;;;;;;19.33;17.53;;;6.90;99.90;;;;;;4913341;29;20856;-75
2021/01/20 17:12:02;;;;;;;20.43;18.50;;;6.80;99.90;;;;;;4913509;29;20792;-75
2021/01/20 17:14:28;;;;;;;20.27;18.27;;;6.90;99.90;;;;;;4912562;29;20944;-75
2021/01/20 17:16:55;;;;;;;30.97;18.77;;;6.80;99.90;;;;;;4913545;29;20469;-75
2021/01/20 17:19:21;;;;;;;21.13;19.20;;;6.80;99.90;;;;;;4913425;29;21015;-74
2021/01/20 17:21:49;;;;;;;20.67;18.70;;;6.70;99.90;;;;;;4913100;29;20454;-74
2021/01/20 17:24:15;;;;;;;23.20;19.47;;;6.60;99.90;;;;;;4913081;29;20458;-74
2021/01/20 17:26:41;;;;;;;21.73;19.80;;;6.60;99.90;;;;;;4913126;29;20451;-74
2021/01/20 17:29:07;;;;;;;22.40;20.37;;;6.50;99.90;;;;;;4913556;29;20454;-75
2021/01/20 17:31:34;;;;;;;23.27;21.17;;;6.50;99.90;;;;;;4912992;29;20517;-75
2021/01/20 17:34:00;;;;;;;21.73;19.60;;;6.50;99.90;;;;;;4913108;29;20454;-76
2021/01/20 17:36:27;;;;;;;22.57;19.70;;;6.50;99.90;;;;;;4913072;29;21016;-76
2021/01/20 17:38:54;;;;;;;22.07;19.90;;;6.50;99.90;;;;;;4913097;29;20881;-76
2021/01/20 17:41:21;;;;;;;22.77;20.73;;;6.60;99.90;;;;;;4912797;29;20490;-75
2021/01/20 17:43:48;;;;;;;21.67;19.87;;;6.40;99.90;;;;;;4912822;29;20468;-75
2021/01/20 17:46:14;;;;;;;23.57;21.20;;;6.40;99.90;;;;;;4910561;29;20462;-76
2021/01/20 17:48:40;;;;;;;21.00;18.80;;;6.30;99.90;;;;;;4912725;29;20454;-75
2021/01/20 17:51:07;;;;;;;22.10;20.07;;;6.20;99.90;;;;;;4913188;29;20461;-75
2021/01/20 17:53:33;;;;;;;22.37;20.47;;;6.10;99.90;;;;;;4912159;29;20815;-75
2021/01/20 17:56:00;;;;;;;21.70;20.10;;;5.90;99.90;;;;;;4912764;29;20461;-75
2021/01/20 17:58:26;;;;;;;21.80;19.40;;;5.90;99.90;;;;;;4913231;29;20462;-76
2021/01/20 18:00:52;;;;;;;22.07;19.87;;;5.80;99.90;;;;;;4912923;29;20481;-75
2021/01/20 18:03:18;;;;;;;23.30;20.93;;;5.80;99.90;;;;;;4913005;29;20461;-75
2021/01/20 18:05:44;;;;;;;21.23;18.73;;;5.80;99.90;;;;;;4912457;29;20446;-75
2021/01/20 18:08:11;;;;;;;21.13;19.17;;;5.80;99.90;;;;;;4913018;29;20958;-76
2021/01/20 18:10:37;;;;;;;19.67;17.77;;;5.70;99.90;;;;;;4913067;29;20452;-74
2021/01/20 18:13:04;;;;;;;17.47;15.90;;;5.70;99.90;;;;;;4913042;29;20532;-76
2021/01/20 18:15:30;;;;;;;19.50;17.20;;;5.70;99.90;;;;;;4912634;29;20454;-75
2021/01/20 18:17:56;;;;;;;20.77;18.43;;;5.60;99.90;;;;;;4912879;29;20458;-75
2021/01/20 18:20:23;;;;;;;19.57;17.87;;;5.70;99.90;;;;;;4913178;29;20494;-75
2021/01/20 18:22:49;;;;;;;22.03;19.77;;;5.60;99.90;;;;;;4912560;29;20532;-76
2021/01/20 18:25:15;;;;;;;24.03;21.63;;;5.60;99.90;;;;;;4914752;29;20472;-75
2021/01/20 18:27:41;;;;;;;25.43;22.73;;;5.60;99.90;;;;;;4916495;29;20462;-75
2021/01/20 18:30:10;;;;;;;25.00;22.70;;;5.60;99.90;;;;;;4916498;29;20445;-75
2021/01/20 18:32:36;;;;;;;26.87;22.80;;;5.60;99.90;;;;;;4916371;29;20451;-76
2021/01/20 18:35:03;;;;;;;22.10;20.00;;;5.60;99.90;;;;;;4916480;29;20879;-75
2021/01/20 18:37:29;;;;;;;24.90;22.50;;;5.50;99.90;;;;;;4916142;29;20465;-75
2021/01/20 18:39:55;;;;;;;37.43;22.40;;;5.50;99.90;;;;;;4915918;29;20628;-76